createdAt,value
2022-10-29T00:02:56.469Z,100.00
2022-10-29T00:08:18.269Z,100.00
2022-10-29T00:13:41.014Z,100.00
2022-10-29T00:19:03.049Z,100.00
2022-10-29T00:24:24.864Z,100.00
2022-10-29T00:29:46.676Z,100.00
2022-10-29T00:35:08.955Z,100.00
2022-10-29T00:40:31.096Z,100.00
2022-10-29T00:45:57.666Z,100.00
2022-10-29T00:51:19.625Z,100.00
2022-10-29T00:56:54.746Z,100.00
2022-10-29T01:02:17.365Z,100.00
2022-10-29T01:07:39.631Z,100.00
2022-10-29T01:13:31.098Z,100.00
2022-10-29T01:19:13.652Z,100.00
2022-10-29T01:24:44.432Z,100.00
2022-10-29T01:30:09.344Z,100.00
2022-10-29T01:35:46.572Z,100.00
2022-10-29T01:41:34.056Z,100.00
2022-10-29T01:47:00.978Z,100.00
2022-10-29T01:52:24.167Z,100.00
2022-10-29T01:57:46.146Z,100.00
2022-10-29T02:03:10.873Z,100.00
2022-10-29T02:09:05.160Z,100.00
2022-10-29T02:14:36.370Z,100.00
2022-10-29T02:19:58.187Z,100.00
2022-10-29T02:25:20.077Z,100.00
2022-10-29T02:30:41.914Z,100.00
2022-10-29T02:36:04.114Z,100.00
2022-10-29T02:41:25.932Z,100.00
2022-10-29T02:46:47.759Z,100.00
2022-10-29T02:52:09.600Z,100.00
2022-10-29T02:57:31.496Z,100.00
2022-10-29T03:02:53.483Z,100.00
2022-10-29T03:08:15.610Z,100.00
2022-10-29T03:19:04.657Z,100.00
2022-10-29T03:24:26.473Z,100.00
2022-10-29T03:29:48.279Z,100.00
2022-10-29T03:35:12.017Z,100.00
2022-10-29T03:40:34.080Z,100.00
2022-10-29T03:45:57.758Z,100.00
2022-10-29T03:51:19.615Z,100.00
2022-10-29T03:56:41.455Z,100.00
2022-10-29T04:02:03.662Z,100.00
2022-10-29T04:07:25.680Z,100.00
2022-10-29T04:12:47.602Z,100.00
2022-10-29T04:18:10.652Z,100.00
2022-10-29T04:29:14.349Z,99.22
2022-10-29T04:34:36.168Z,98.08
2022-10-29T04:39:58.252Z,97.20
2022-10-29T04:45:20.084Z,97.00
2022-10-29T04:50:41.897Z,96.53
2022-10-29T04:56:03.898Z,96.00
2022-10-29T05:01:25.972Z,95.28
2022-10-29T05:06:47.938Z,95.05
2022-10-29T05:12:09.748Z,94.46
2022-10-29T05:17:31.871Z,94.47
2022-10-29T05:23:06.323Z,92.77
2022-10-29T05:28:28.183Z,93.18
2022-10-29T05:33:52.495Z,92.61
2022-10-29T05:39:17.408Z,91.50
2022-10-29T05:44:39.411Z,91.21
2022-10-29T05:50:01.221Z,90.97
2022-10-29T05:55:23.506Z,90.25
2022-10-29T06:00:45.377Z,90.36
2022-10-29T06:06:07.961Z,88.83
2022-10-29T06:11:29.876Z,88.50
2022-10-29T06:16:51.734Z,87.56
2022-10-29T06:22:13.547Z,87.71
2022-10-29T06:27:37.292Z,87.40
2022-10-29T06:33:00.053Z,87.33
2022-10-29T06:38:21.882Z,86.20
2022-10-29T06:43:44.054Z,84.72
2022-10-29T06:49:05.850Z,84.28
2022-10-29T06:54:27.678Z,80.80
2022-10-29T06:59:49.777Z,78.74
2022-10-29T07:05:11.935Z,74.07
2022-10-29T07:10:34.189Z,68.03
2022-10-29T07:15:56.088Z,61.40
2022-10-29T07:21:17.887Z,51.81
2022-10-29T07:26:39.804Z,48.86
2022-10-29T07:32:01.657Z,51.27
2022-10-29T07:37:23.501Z,48.41
2022-10-29T07:42:45.320Z,47.54
2022-10-29T07:48:07.332Z,45.28
2022-10-29T07:53:29.326Z,45.82
2022-10-29T07:58:51.159Z,49.83
2022-10-29T08:04:13.124Z,48.80
2022-10-29T08:09:35.054Z,46.39
2022-10-29T08:14:56.911Z,45.77
2022-10-29T08:20:19.812Z,43.75
2022-10-29T08:25:42.936Z,44.52
2022-10-29T08:31:04.992Z,46.68
2022-10-29T08:36:26.820Z,46.53
2022-10-29T08:41:51.589Z,47.77
2022-10-29T08:47:17.788Z,46.30
2022-10-29T08:52:52.995Z,45.39
2022-10-29T08:58:34.142Z,41.00
2022-10-29T09:03:56.045Z,43.28
2022-10-29T09:09:38.564Z,46.32
2022-10-29T09:15:23.284Z,52.42
2022-10-29T09:21:22.640Z,57.95
2022-10-29T09:27:20.911Z,58.84
2022-10-29T09:32:57.441Z,62.13
2022-10-29T09:38:24.001Z,61.26
2022-10-29T09:43:45.801Z,64.22
2022-10-29T09:49:39.583Z,66.21
2022-10-29T09:55:05.386Z,68.30
2022-10-29T10:00:32.018Z,69.13
2022-10-29T10:05:58.396Z,72.32
2022-10-29T10:11:20.156Z,75.61
2022-10-29T10:16:42.100Z,74.79
2022-10-29T10:22:05.569Z,75.07
2022-10-29T10:27:31.140Z,75.86
2022-10-29T10:32:53.271Z,76.33
2022-10-29T10:38:15.939Z,77.94
2022-10-29T10:43:41.313Z,79.06
2022-10-29T10:49:17.777Z,79.44
2022-10-29T10:54:56.080Z,79.54
2022-10-29T11:00:21.117Z,79.22
2022-10-29T11:06:01.588Z,77.25
2022-10-29T11:11:30.997Z,77.30
2022-10-29T11:16:58.340Z,78.94
2022-10-29T11:22:44.249Z,78.97
2022-10-29T11:28:24.069Z,79.14
2022-10-29T11:33:56.614Z,79.62
2022-10-29T11:39:26.772Z,82.26
2022-10-29T11:44:48.792Z,82.38
2022-10-29T11:50:10.556Z,80.82
2022-10-29T11:56:21.310Z,81.63
2022-10-29T12:01:55.161Z,80.73
2022-10-29T12:07:39.714Z,79.07
2022-10-29T12:13:24.627Z,77.72
2022-10-29T12:19:07.061Z,76.41
2022-10-29T12:25:01.493Z,77.06
2022-10-29T12:30:24.197Z,78.49
2022-10-29T12:35:56.145Z,78.98
2022-10-29T12:41:25.329Z,78.69
2022-10-29T12:46:52.855Z,78.40
2022-10-29T12:52:53.122Z,78.20
2022-10-29T12:58:44.034Z,78.13
2022-10-29T13:04:23.007Z,78.55
2022-10-29T13:09:48.267Z,79.62
2022-10-29T13:15:12.822Z,80.08
2022-10-29T13:20:39.368Z,78.93
2022-10-29T13:26:02.549Z,78.47
2022-10-29T13:31:24.336Z,78.40
2022-10-29T13:36:46.213Z,77.30
2022-10-29T13:42:13.037Z,76.51
2022-10-29T13:47:35.245Z,76.97
2022-10-29T13:53:00.757Z,76.17
2022-10-29T13:58:32.092Z,76.69
2022-10-29T14:04:22.239Z,76.87
2022-10-29T14:09:48.432Z,77.34
2022-10-29T14:15:13.266Z,77.09
2022-10-29T14:20:35.086Z,77.99
2022-10-29T14:25:59.463Z,78.69
2022-10-29T14:31:23.283Z,78.66
2022-10-29T14:36:48.140Z,79.52
2022-10-29T14:47:51.383Z,81.11
2022-10-29T14:53:31.525Z,81.34
2022-10-29T14:58:53.479Z,82.76
2022-10-29T15:04:33.287Z,84.59
2022-10-29T15:10:25.789Z,85.07
2022-10-29T15:16:02.035Z,86.13
2022-10-29T15:21:26.497Z,86.98
2022-10-29T15:26:52.890Z,88.20
2022-10-29T15:32:16.977Z,88.81
2022-10-29T15:37:43.281Z,89.83
2022-10-29T15:43:27.212Z,91.79
2022-10-29T15:48:49.049Z,91.42
2022-10-29T15:54:13.655Z,92.06
2022-10-29T15:59:35.471Z,93.05
2022-10-29T16:04:57.346Z,94.38
2022-10-29T16:10:21.463Z,93.66
2022-10-29T16:15:44.379Z,94.75
2022-10-29T16:21:06.719Z,95.26
2022-10-29T16:26:28.567Z,95.34
2022-10-29T16:31:50.412Z,95.60
2022-10-29T16:37:19.463Z,95.74
2022-10-29T16:42:41.827Z,96.04
2022-10-29T16:48:03.853Z,97.21
2022-10-29T16:53:25.766Z,96.87
2022-10-29T16:58:47.615Z,97.23
2022-10-29T17:04:09.602Z,97.65
2022-10-29T17:09:31.520Z,97.38
2022-10-29T17:14:53.354Z,98.00
2022-10-29T17:20:15.346Z,97.72
2022-10-29T17:25:40.293Z,97.51
2022-10-29T17:31:05.323Z,97.64
2022-10-29T17:36:27.137Z,98.17
2022-10-29T17:41:49.812Z,98.48
2022-10-29T17:47:11.658Z,98.17
2022-10-29T17:52:33.492Z,98.21
2022-10-29T17:57:55.713Z,98.35
2022-10-29T18:03:18.412Z,98.57
2022-10-29T18:08:42.035Z,98.53
2022-10-29T18:14:03.942Z,98.92
2022-10-29T18:19:25.772Z,99.03
2022-10-29T18:24:47.630Z,98.89
2022-10-29T18:30:09.816Z,98.91
2022-10-29T18:35:31.649Z,99.17
2022-10-29T18:40:55.091Z,99.11
2022-10-29T18:46:17.964Z,99.44
2022-10-29T18:51:40.086Z,100.00
2022-10-29T18:57:01.914Z,100.00
2022-10-29T19:02:23.944Z,100.00
2022-10-29T19:07:45.878Z,100.00
2022-10-29T19:13:08.279Z,100.00
2022-10-29T19:18:31.395Z,100.00
2022-10-29T19:23:57.834Z,100.00
2022-10-29T19:29:19.679Z,100.00
2022-10-29T19:34:41.492Z,100.00
2022-10-29T19:40:03.919Z,100.00
2022-10-29T19:45:25.781Z,100.00
2022-10-29T19:50:51.620Z,100.00
2022-10-29T19:56:15.675Z,100.00
2022-10-29T20:01:37.675Z,100.00
2022-10-29T20:06:59.601Z,100.00
2022-10-29T20:12:21.433Z,100.00
2022-10-29T20:17:43.267Z,100.00
2022-10-29T20:23:05.183Z,100.00
2022-10-29T20:28:27.023Z,100.00
2022-10-29T20:33:53.432Z,100.00
2022-10-29T20:39:15.725Z,100.00
2022-10-29T20:44:37.630Z,100.00
2022-10-29T20:49:59.490Z,100.00
2022-10-29T20:55:21.370Z,100.00
2022-10-29T21:00:43.311Z,100.00
2022-10-29T21:06:09.943Z,100.00
2022-10-29T21:11:34.270Z,100.00
2022-10-29T21:16:56.107Z,100.00
2022-10-29T21:22:17.924Z,100.00
2022-10-29T21:27:39.806Z,100.00
2022-10-29T21:33:01.619Z,100.00
2022-10-29T21:38:25.008Z,100.00
2022-10-29T21:43:46.832Z,100.00
2022-10-29T21:49:08.728Z,100.00
2022-10-29T21:54:30.592Z,100.00
2022-10-29T21:59:52.392Z,100.00
2022-10-29T22:05:14.257Z,100.00
2022-10-29T22:10:36.094Z,100.00
2022-10-29T22:15:58.308Z,100.00
2022-10-29T22:21:25.530Z,100.00
2022-10-29T22:26:47.338Z,100.00
2022-10-29T22:32:09.199Z,100.00
2022-10-29T22:37:31.040Z,100.00
2022-10-29T22:42:52.852Z,100.00
2022-10-29T22:48:14.672Z,100.00
2022-10-29T22:53:36.543Z,100.00
2022-10-29T22:58:59.683Z,100.00
2022-10-29T23:04:21.546Z,100.00
2022-10-29T23:09:43.337Z,100.00
2022-10-29T23:15:05.621Z,100.00
2022-10-29T23:20:27.419Z,100.00
2022-10-29T23:25:49.237Z,100.00
2022-10-29T23:31:14.140Z,100.00
2022-10-29T23:36:35.957Z,100.00
2022-10-29T23:41:57.760Z,100.00
2022-10-29T23:47:19.584Z,100.00
2022-10-29T23:52:41.439Z,100.00
2022-10-29T23:58:04.126Z,100.00
